sensor_id;sensor_type;location;lat;lon;timestamp;P1;durP1;ratioP1;P2;durP2;ratioP2
40198;SDS011;25906;43.536;26.068;2023-05-17T00:01:04;4.38;;;2.35;;
40198;SDS011;25906;43.536;26.068;2023-05-17T00:03:50;6.03;;;2.58;;
40198;SDS011;25906;43.536;26.068;2023-05-17T00:06:38;5.05;;;2.60;;
40198;SDS011;25906;43.536;26.068;2023-05-17T00:09:23;4.68;;;2.42;;
40198;SDS011;25906;43.536;26.068;2023-05-17T00:12:09;6.25;;;2.70;;
40198;SDS011;25906;43.536;26.068;2023-05-17T00:14:54;11.77;;;2.75;;
40198;SDS011;25906;43.536;26.068;2023-05-17T00:17:40;4.72;;;2.08;;
40198;SDS011;25906;43.536;26.068;2023-05-17T00:20:25;4.25;;;2.60;;
40198;SDS011;25906;43.536;26.068;2023-05-17T00:23:11;5.88;;;2.60;;
40198;SDS011;25906;43.536;26.068;2023-05-17T00:25:56;3.90;;;2.30;;
40198;SDS011;25906;43.536;26.068;2023-05-17T00:28:42;8.65;;;2.75;;
40198;SDS011;25906;43.536;26.068;2023-05-17T00:31:27;3.95;;;2.83;;
40198;SDS011;25906;43.536;26.068;2023-05-17T00:34:13;9.45;;;3.05;;
40198;SDS011;25906;43.536;26.068;2023-05-17T00:36:58;6.00;;;2.90;;
40198;SDS011;25906;43.536;26.068;2023-05-17T00:39:43;6.15;;;2.88;;
40198;SDS011;25906;43.536;26.068;2023-05-17T00:42:29;4.30;;;2.90;;
40198;SDS011;25906;43.536;26.068;2023-05-17T00:45:14;5.45;;;3.08;;
40198;SDS011;25906;43.536;26.068;2023-05-17T00:48:00;8.23;;;3.72;;
40198;SDS011;25906;43.536;26.068;2023-05-17T00:50:45;6.97;;;3.38;;
40198;SDS011;25906;43.536;26.068;2023-05-17T00:53:32;8.25;;;3.50;;
40198;SDS011;25906;43.536;26.068;2023-05-17T00:56:18;11.57;;;3.55;;
40198;SDS011;25906;43.536;26.068;2023-05-17T00:59:04;7.00;;;3.47;;
40198;SDS011;25906;43.536;26.068;2023-05-17T01:01:50;13.48;;;3.72;;
40198;SDS011;25906;43.536;26.068;2023-05-17T01:04:36;10.60;;;4.05;;
40198;SDS011;25906;43.536;26.068;2023-05-17T01:07:22;9.63;;;4.30;;
40198;SDS011;25906;43.536;26.068;2023-05-17T01:10:08;8.32;;;4.25;;
40198;SDS011;25906;43.536;26.068;2023-05-17T01:16:17;6.25;;;3.80;;
40198;SDS011;25906;43.536;26.068;2023-05-17T01:28:59;12.57;;;3.83;;
40198;SDS011;25906;43.536;26.068;2023-05-17T01:31:46;7.95;;;4.25;;
40198;SDS011;25906;43.536;26.068;2023-05-17T01:34:33;7.53;;;4.85;;
40198;SDS011;25906;43.536;26.068;2023-05-17T01:40:04;9.32;;;4.43;;
40198;SDS011;25906;43.536;26.068;2023-05-17T01:42:53;9.85;;;4.53;;
40198;SDS011;25906;43.536;26.068;2023-05-17T01:45:48;10.93;;;4.13;;
40198;SDS011;25906;43.536;26.068;2023-05-17T01:48:46;12.75;;;5.03;;
40198;SDS011;25906;43.536;26.068;2023-05-17T01:57:40;12.45;;;4.90;;
40198;SDS011;25906;43.536;26.068;2023-05-17T02:00:28;9.15;;;4.50;;
40198;SDS011;25906;43.536;26.068;2023-05-17T02:06:03;7.90;;;3.53;;
40198;SDS011;25906;43.536;26.068;2023-05-17T02:08:48;11.60;;;3.70;;
40198;SDS011;25906;43.536;26.068;2023-05-17T02:11:34;9.52;;;4.03;;
40198;SDS011;25906;43.536;26.068;2023-05-17T02:14:20;12.52;;;4.03;;
40198;SDS011;25906;43.536;26.068;2023-05-17T02:17:05;6.13;;;3.55;;
40198;SDS011;25906;43.536;26.068;2023-05-17T02:19:51;6.40;;;3.65;;
40198;SDS011;25906;43.536;26.068;2023-05-17T02:22:36;7.10;;;3.63;;
40198;SDS011;25906;43.536;26.068;2023-05-17T02:25:22;7.97;;;4.25;;
40198;SDS011;25906;43.536;26.068;2023-05-17T02:28:07;7.80;;;4.70;;
40198;SDS011;25906;43.536;26.068;2023-05-17T02:30:53;14.43;;;4.85;;
40198;SDS011;25906;43.536;26.068;2023-05-17T02:33:38;7.40;;;4.40;;
40198;SDS011;25906;43.536;26.068;2023-05-17T02:36:24;7.65;;;4.15;;
40198;SDS011;25906;43.536;26.068;2023-05-17T02:39:09;9.73;;;4.57;;
40198;SDS011;25906;43.536;26.068;2023-05-17T02:41:54;14.80;;;5.60;;
40198;SDS011;25906;43.536;26.068;2023-05-17T02:44:40;13.55;;;5.97;;
40198;SDS011;25906;43.536;26.068;2023-05-17T02:47:25;12.35;;;5.63;;
40198;SDS011;25906;43.536;26.068;2023-05-17T02:50:11;7.78;;;4.90;;
40198;SDS011;25906;43.536;26.068;2023-05-17T02:52:56;10.13;;;5.43;;
40198;SDS011;25906;43.536;26.068;2023-05-17T02:55:41;9.70;;;5.10;;
40198;SDS011;25906;43.536;26.068;2023-05-17T02:58:27;9.27;;;5.05;;
40198;SDS011;25906;43.536;26.068;2023-05-17T03:01:12;10.27;;;5.18;;
40198;SDS011;25906;43.536;26.068;2023-05-17T03:03:57;8.57;;;5.10;;
40198;SDS011;25906;43.536;26.068;2023-05-17T03:06:43;10.45;;;5.80;;
40198;SDS011;25906;43.536;26.068;2023-05-17T03:09:28;10.40;;;5.28;;
40198;SDS011;25906;43.536;26.068;2023-05-17T03:12:14;7.57;;;5.32;;
40198;SDS011;25906;43.536;26.068;2023-05-17T03:14:59;13.35;;;5.57;;
40198;SDS011;25906;43.536;26.068;2023-05-17T03:17:44;13.68;;;5.50;;
40198;SDS011;25906;43.536;26.068;2023-05-17T03:20:30;9.45;;;5.20;;
40198;SDS011;25906;43.536;26.068;2023-05-17T03:23:15;11.23;;;4.72;;
40198;SDS011;25906;43.536;26.068;2023-05-17T03:26:01;13.05;;;5.03;;
40198;SDS011;25906;43.536;26.068;2023-05-17T03:28:46;16.13;;;5.50;;
40198;SDS011;25906;43.536;26.068;2023-05-17T03:31:32;12.63;;;6.07;;
40198;SDS011;25906;43.536;26.068;2023-05-17T03:34:17;10.10;;;5.25;;
40198;SDS011;25906;43.536;26.068;2023-05-17T03:37:02;9.95;;;4.88;;
40198;SDS011;25906;43.536;26.068;2023-05-17T03:39:48;8.25;;;5.40;;
40198;SDS011;25906;43.536;26.068;2023-05-17T03:42:33;12.55;;;5.68;;
40198;SDS011;25906;43.536;26.068;2023-05-17T03:45:19;13.20;;;5.20;;
40198;SDS011;25906;43.536;26.068;2023-05-17T03:48:04;9.00;;;5.55;;
40198;SDS011;25906;43.536;26.068;2023-05-17T03:50:50;10.40;;;5.85;;
40198;SDS011;25906;43.536;26.068;2023-05-17T03:53:35;14.30;;;5.30;;
40198;SDS011;25906;43.536;26.068;2023-05-17T03:56:25;12.40;;;4.93;;
40198;SDS011;25906;43.536;26.068;2023-05-17T03:59:10;9.15;;;4.85;;
40198;SDS011;25906;43.536;26.068;2023-05-17T04:01:56;13.07;;;5.07;;
40198;SDS011;25906;43.536;26.068;2023-05-17T04:04:48;11.38;;;5.30;;
40198;SDS011;25906;43.536;26.068;2023-05-17T04:07:34;9.45;;;4.85;;
40198;SDS011;25906;43.536;26.068;2023-05-17T04:10:20;10.70;;;5.30;;
40198;SDS011;25906;43.536;26.068;2023-05-17T04:13:09;10.77;;;5.18;;
40198;SDS011;25906;43.536;26.068;2023-05-17T04:15:54;8.85;;;4.85;;
40198;SDS011;25906;43.536;26.068;2023-05-17T04:18:40;18.85;;;4.95;;
40198;SDS011;25906;43.536;26.068;2023-05-17T04:21:25;12.80;;;5.70;;
40198;SDS011;25906;43.536;26.068;2023-05-17T04:24:11;9.43;;;5.93;;
40198;SDS011;25906;43.536;26.068;2023-05-17T04:26:56;11.15;;;5.30;;
40198;SDS011;25906;43.536;26.068;2023-05-17T04:29:43;12.98;;;4.50;;
40198;SDS011;25906;43.536;26.068;2023-05-17T04:32:28;9.15;;;4.65;;
40198;SDS011;25906;43.536;26.068;2023-05-17T04:35:14;8.98;;;4.90;;
40198;SDS011;25906;43.536;26.068;2023-05-17T04:37:59;11.57;;;4.68;;
40198;SDS011;25906;43.536;26.068;2023-05-17T04:40:45;14.90;;;5.03;;
40198;SDS011;25906;43.536;26.068;2023-05-17T04:43:30;15.70;;;5.05;;
40198;SDS011;25906;43.536;26.068;2023-05-17T04:46:17;8.88;;;4.57;;
40198;SDS011;25906;43.536;26.068;2023-05-17T04:49:02;8.45;;;4.50;;
40198;SDS011;25906;43.536;26.068;2023-05-17T04:51:47;14.55;;;4.80;;
40198;SDS011;25906;43.536;26.068;2023-05-17T04:54:33;15.27;;;4.80;;
40198;SDS011;25906;43.536;26.068;2023-05-17T04:57:18;11.80;;;5.22;;
40198;SDS011;25906;43.536;26.068;2023-05-17T05:00:05;8.55;;;4.63;;
40198;SDS011;25906;43.536;26.068;2023-05-17T05:05:36;10.50;;;4.30;;
40198;SDS011;25906;43.536;26.068;2023-05-17T05:08:21;13.70;;;5.15;;
40198;SDS011;25906;43.536;26.068;2023-05-17T05:11:07;12.02;;;5.57;;
40198;SDS011;25906;43.536;26.068;2023-05-17T05:13:52;6.95;;;4.70;;
40198;SDS011;25906;43.536;26.068;2023-05-17T05:16:38;11.48;;;6.10;;
40198;SDS011;25906;43.536;26.068;2023-05-17T05:19:23;10.23;;;5.18;;
40198;SDS011;25906;43.536;26.068;2023-05-17T05:22:08;14.43;;;5.57;;
40198;SDS011;25906;43.536;26.068;2023-05-17T05:24:55;13.43;;;5.30;;
40198;SDS011;25906;43.536;26.068;2023-05-17T05:27:40;17.55;;;6.00;;
40198;SDS011;25906;43.536;26.068;2023-05-17T05:30:26;15.25;;;5.65;;
40198;SDS011;25906;43.536;26.068;2023-05-17T05:33:11;12.80;;;5.32;;
40198;SDS011;25906;43.536;26.068;2023-05-17T05:35:56;10.68;;;5.22;;
40198;SDS011;25906;43.536;26.068;2023-05-17T05:38:42;13.10;;;5.68;;
40198;SDS011;25906;43.536;26.068;2023-05-17T05:41:27;12.55;;;5.68;;
40198;SDS011;25906;43.536;26.068;2023-05-17T05:44:13;9.20;;;6.00;;
40198;SDS011;25906;43.536;26.068;2023-05-17T05:46:58;11.57;;;5.30;;
40198;SDS011;25906;43.536;26.068;2023-05-17T05:49:43;11.68;;;5.95;;
40198;SDS011;25906;43.536;26.068;2023-05-17T05:52:29;11.48;;;5.40;;
40198;SDS011;25906;43.536;26.068;2023-05-17T05:55:15;12.77;;;5.85;;
40198;SDS011;25906;43.536;26.068;2023-05-17T05:58:00;12.70;;;6.47;;
40198;SDS011;25906;43.536;26.068;2023-05-17T06:00:46;13.25;;;6.32;;
40198;SDS011;25906;43.536;26.068;2023-05-17T06:06:17;12.48;;;6.28;;
40198;SDS011;25906;43.536;26.068;2023-05-17T06:09:03;10.60;;;6.65;;
40198;SDS011;25906;43.536;26.068;2023-05-17T06:11:51;11.80;;;5.97;;
40198;SDS011;25906;43.536;26.068;2023-05-17T06:14:37;12.63;;;5.68;;
40198;SDS011;25906;43.536;26.068;2023-05-17T06:17:23;11.65;;;5.90;;
40198;SDS011;25906;43.536;26.068;2023-05-17T06:20:08;9.65;;;6.00;;
40198;SDS011;25906;43.536;26.068;2023-05-17T06:22:54;10.30;;;6.65;;
40198;SDS011;25906;43.536;26.068;2023-05-17T06:25:39;14.68;;;7.53;;
40198;SDS011;25906;43.536;26.068;2023-05-17T06:28:25;12.43;;;7.15;;
40198;SDS011;25906;43.536;26.068;2023-05-17T06:31:10;13.63;;;6.47;;
40198;SDS011;25906;43.536;26.068;2023-05-17T06:33:56;11.95;;;6.97;;
40198;SDS011;25906;43.536;26.068;2023-05-17T06:36:41;16.13;;;7.50;;
40198;SDS011;25906;43.536;26.068;2023-05-17T06:39:26;13.85;;;6.82;;
40198;SDS011;25906;43.536;26.068;2023-05-17T06:42:12;16.08;;;7.38;;
40198;SDS011;25906;43.536;26.068;2023-05-17T06:44:57;15.48;;;7.50;;
40198;SDS011;25906;43.536;26.068;2023-05-17T06:47:43;14.30;;;6.72;;
40198;SDS011;25906;43.536;26.068;2023-05-17T06:50:28;12.65;;;6.72;;
40198;SDS011;25906;43.536;26.068;2023-05-17T06:53:14;14.18;;;6.88;;
40198;SDS011;25906;43.536;26.068;2023-05-17T06:55:59;19.67;;;7.40;;
40198;SDS011;25906;43.536;26.068;2023-05-17T06:58:45;18.88;;;7.50;;
40198;SDS011;25906;43.536;26.068;2023-05-17T07:01:30;12.48;;;7.45;;
40198;SDS011;25906;43.536;26.068;2023-05-17T07:04:16;20.38;;;6.97;;
40198;SDS011;25906;43.536;26.068;2023-05-17T07:07:02;16.48;;;7.00;;
40198;SDS011;25906;43.536;26.068;2023-05-17T07:09:47;15.70;;;6.85;;
40198;SDS011;25906;43.536;26.068;2023-05-17T07:12:32;13.55;;;6.05;;
40198;SDS011;25906;43.536;26.068;2023-05-17T07:15:18;18.90;;;6.78;;
40198;SDS011;25906;43.536;26.068;2023-05-17T07:18:03;15.57;;;5.88;;
40198;SDS011;25906;43.536;26.068;2023-05-17T07:20:49;8.55;;;5.30;;
40198;SDS011;25906;43.536;26.068;2023-05-17T07:23:34;16.38;;;5.60;;
40198;SDS011;25906;43.536;26.068;2023-05-17T07:26:20;11.55;;;5.90;;
40198;SDS011;25906;43.536;26.068;2023-05-17T07:29:06;11.10;;;6.05;;
40198;SDS011;25906;43.536;26.068;2023-05-17T07:31:51;14.20;;;6.60;;
40198;SDS011;25906;43.536;26.068;2023-05-17T07:34:37;13.43;;;6.13;;
40198;SDS011;25906;43.536;26.068;2023-05-17T07:37:22;15.25;;;6.07;;
40198;SDS011;25906;43.536;26.068;2023-05-17T07:40:09;14.30;;;6.90;;
40198;SDS011;25906;43.536;26.068;2023-05-17T07:42:54;15.63;;;6.22;;
40198;SDS011;25906;43.536;26.068;2023-05-17T07:45:41;14.63;;;6.20;;
40198;SDS011;25906;43.536;26.068;2023-05-17T07:48:27;14.80;;;6.90;;
40198;SDS011;25906;43.536;26.068;2023-05-17T07:51:13;19.13;;;6.50;;
40198;SDS011;25906;43.536;26.068;2023-05-17T07:53:58;10.50;;;6.40;;
40198;SDS011;25906;43.536;26.068;2023-05-17T07:56:44;13.82;;;7.35;;
40198;SDS011;25906;43.536;26.068;2023-05-17T07:59:29;11.30;;;6.63;;
40198;SDS011;25906;43.536;26.068;2023-05-17T08:02:15;13.05;;;6.68;;
40198;SDS011;25906;43.536;26.068;2023-05-17T08:05:00;11.95;;;7.35;;
40198;SDS011;25906;43.536;26.068;2023-05-17T08:07:45;16.70;;;7.75;;
40198;SDS011;25906;43.536;26.068;2023-05-17T08:10:31;12.18;;;7.47;;
40198;SDS011;25906;43.536;26.068;2023-05-17T08:13:20;14.68;;;7.45;;
40198;SDS011;25906;43.536;26.068;2023-05-17T08:16:05;11.98;;;8.07;;
40198;SDS011;25906;43.536;26.068;2023-05-17T08:18:53;14.65;;;7.53;;
40198;SDS011;25906;43.536;26.068;2023-05-17T08:21:39;14.70;;;8.18;;
40198;SDS011;25906;43.536;26.068;2023-05-17T08:24:25;15.05;;;8.82;;
40198;SDS011;25906;43.536;26.068;2023-05-17T08:27:11;16.33;;;9.20;;
40198;SDS011;25906;43.536;26.068;2023-05-17T08:29:56;13.77;;;8.02;;
40198;SDS011;25906;43.536;26.068;2023-05-17T08:32:42;16.65;;;8.68;;
40198;SDS011;25906;43.536;26.068;2023-05-17T08:35:29;13.70;;;8.68;;
40198;SDS011;25906;43.536;26.068;2023-05-17T08:38:15;14.30;;;7.68;;
40198;SDS011;25906;43.536;26.068;2023-05-17T08:41:00;15.55;;;8.65;;
40198;SDS011;25906;43.536;26.068;2023-05-17T08:43:50;19.38;;;9.50;;
40198;SDS011;25906;43.536;26.068;2023-05-17T08:46:35;14.13;;;7.75;;
40198;SDS011;25906;43.536;26.068;2023-05-17T08:49:23;14.93;;;8.25;;
40198;SDS011;25906;43.536;26.068;2023-05-17T08:52:11;15.85;;;8.05;;
40198;SDS011;25906;43.536;26.068;2023-05-17T08:54:58;19.17;;;7.90;;
40198;SDS011;25906;43.536;26.068;2023-05-17T08:57:47;16.52;;;7.63;;
40198;SDS011;25906;43.536;26.068;2023-05-17T09:00:34;13.15;;;7.03;;
40198;SDS011;25906;43.536;26.068;2023-05-17T09:06:06;11.98;;;6.78;;
40198;SDS011;25906;43.536;26.068;2023-05-17T09:08:54;11.50;;;5.85;;
40198;SDS011;25906;43.536;26.068;2023-05-17T09:11:39;13.50;;;6.45;;
40198;SDS011;25906;43.536;26.068;2023-05-17T09:14:24;18.48;;;7.07;;
40198;SDS011;25906;43.536;26.068;2023-05-17T09:17:17;14.10;;;6.78;;
40198;SDS011;25906;43.536;26.068;2023-05-17T09:20:04;16.73;;;7.80;;
40198;SDS011;25906;43.536;26.068;2023-05-17T09:22:51;13.02;;;6.63;;
40198;SDS011;25906;43.536;26.068;2023-05-17T09:25:36;15.77;;;6.85;;
40198;SDS011;25906;43.536;26.068;2023-05-17T09:28:22;15.52;;;7.60;;
40198;SDS011;25906;43.536;26.068;2023-05-17T09:31:07;11.90;;;7.25;;
40198;SDS011;25906;43.536;26.068;2023-05-17T09:33:53;14.27;;;7.22;;
40198;SDS011;25906;43.536;26.068;2023-05-17T09:36:42;14.10;;;7.88;;
40198;SDS011;25906;43.536;26.068;2023-05-17T09:39:28;14.73;;;7.60;;
40198;SDS011;25906;43.536;26.068;2023-05-17T09:42:16;17.52;;;7.78;;
40198;SDS011;25906;43.536;26.068;2023-05-17T09:45:01;19.67;;;8.57;;
40198;SDS011;25906;43.536;26.068;2023-05-17T09:47:47;16.08;;;8.10;;
40198;SDS011;25906;43.536;26.068;2023-05-17T09:50:32;22.65;;;7.97;;
40198;SDS011;25906;43.536;26.068;2023-05-17T09:53:21;23.73;;;7.93;;
40198;SDS011;25906;43.536;26.068;2023-05-17T09:56:13;14.88;;;7.40;;
40198;SDS011;25906;43.536;26.068;2023-05-17T09:59:17;14.10;;;6.75;;
40198;SDS011;25906;43.536;26.068;2023-05-17T10:02:04;14.63;;;7.10;;
40198;SDS011;25906;43.536;26.068;2023-05-17T10:04:55;12.38;;;6.93;;
40198;SDS011;25906;43.536;26.068;2023-05-17T10:07:42;13.73;;;7.00;;
40198;SDS011;25906;43.536;26.068;2023-05-17T10:10:29;13.55;;;7.30;;
40198;SDS011;25906;43.536;26.068;2023-05-17T10:13:17;11.02;;;7.35;;
40198;SDS011;25906;43.536;26.068;2023-05-17T10:16:09;16.33;;;6.30;;
40198;SDS011;25906;43.536;26.068;2023-05-17T10:18:56;11.85;;;6.18;;
40198;SDS011;25906;43.536;26.068;2023-05-17T10:21:41;13.68;;;5.07;;
40198;SDS011;25906;43.536;26.068;2023-05-17T10:24:28;15.00;;;4.88;;
40198;SDS011;25906;43.536;26.068;2023-05-17T10:27:15;15.77;;;4.80;;
40198;SDS011;25906;43.536;26.068;2023-05-17T10:30:01;13.48;;;4.68;;
40198;SDS011;25906;43.536;26.068;2023-05-17T10:32:47;7.15;;;4.65;;
40198;SDS011;25906;43.536;26.068;2023-05-17T10:35:34;8.10;;;4.32;;
40198;SDS011;25906;43.536;26.068;2023-05-17T10:38:20;9.60;;;4.70;;
40198;SDS011;25906;43.536;26.068;2023-05-17T10:41:08;11.88;;;3.83;;
40198;SDS011;25906;43.536;26.068;2023-05-17T10:43:57;15.43;;;4.25;;
40198;SDS011;25906;43.536;26.068;2023-05-17T10:46:54;13.93;;;5.00;;
40198;SDS011;25906;43.536;26.068;2023-05-17T10:49:41;7.97;;;4.50;;
40198;SDS011;25906;43.536;26.068;2023-05-17T10:52:31;12.80;;;4.80;;
40198;SDS011;25906;43.536;26.068;2023-05-17T10:55:20;9.75;;;4.05;;
40198;SDS011;25906;43.536;26.068;2023-05-17T10:58:16;9.90;;;3.97;;
40198;SDS011;25906;43.536;26.068;2023-05-17T11:01:03;8.90;;;3.83;;
40198;SDS011;25906;43.536;26.068;2023-05-17T11:03:51;11.55;;;4.13;;
40198;SDS011;25906;43.536;26.068;2023-05-17T11:06:39;7.47;;;3.60;;
40198;SDS011;25906;43.536;26.068;2023-05-17T11:09:24;8.25;;;3.75;;
40198;SDS011;25906;43.536;26.068;2023-05-17T11:12:10;8.85;;;3.70;;
40198;SDS011;25906;43.536;26.068;2023-05-17T11:14:57;10.75;;;3.38;;
40198;SDS011;25906;43.536;26.068;2023-05-17T11:20:31;8.80;;;3.40;;
40198;SDS011;25906;43.536;26.068;2023-05-17T11:23:18;7.85;;;3.40;;
40198;SDS011;25906;43.536;26.068;2023-05-17T11:26:16;6.00;;;3.20;;
40198;SDS011;25906;43.536;26.068;2023-05-17T11:29:07;7.07;;;3.28;;
40198;SDS011;25906;43.536;26.068;2023-05-17T11:31:54;7.35;;;3.47;;
40198;SDS011;25906;43.536;26.068;2023-05-17T11:34:39;7.88;;;3.67;;
40198;SDS011;25906;43.536;26.068;2023-05-17T11:40:11;11.30;;;3.60;;
40198;SDS011;25906;43.536;26.068;2023-05-17T11:46:18;9.38;;;3.50;;
40198;SDS011;25906;43.536;26.068;2023-05-17T11:49:08;6.70;;;3.45;;
40198;SDS011;25906;43.536;26.068;2023-05-17T11:54:39;7.90;;;3.20;;
40198;SDS011;25906;43.536;26.068;2023-05-17T11:57:28;5.90;;;3.53;;
40198;SDS011;25906;43.536;26.068;2023-05-17T12:00:14;8.43;;;3.58;;
40198;SDS011;25906;43.536;26.068;2023-05-17T12:03:20;6.88;;;3.30;;
40198;SDS011;25906;43.536;26.068;2023-05-17T12:06:10;10.90;;;3.47;;
40198;SDS011;25906;43.536;26.068;2023-05-17T12:08:57;10.73;;;3.58;;
40198;SDS011;25906;43.536;26.068;2023-05-17T12:11:43;8.70;;;3.40;;
40198;SDS011;25906;43.536;26.068;2023-05-17T12:14:28;5.97;;;2.88;;
40198;SDS011;25906;43.536;26.068;2023-05-17T12:17:17;10.63;;;3.28;;
40198;SDS011;25906;43.536;26.068;2023-05-17T12:20:08;10.13;;;3.53;;
40198;SDS011;25906;43.536;26.068;2023-05-17T12:22:54;7.95;;;2.92;;
40198;SDS011;25906;43.536;26.068;2023-05-17T12:25:41;3.85;;;2.20;;
40198;SDS011;25906;43.536;26.068;2023-05-17T12:28:26;7.57;;;2.60;;
40198;SDS011;25906;43.536;26.068;2023-05-17T12:31:13;4.85;;;2.45;;
40198;SDS011;25906;43.536;26.068;2023-05-17T12:34:05;5.88;;;2.67;;
40198;SDS011;25906;43.536;26.068;2023-05-17T12:36:51;9.35;;;2.78;;
40198;SDS011;25906;43.536;26.068;2023-05-17T12:39:37;3.20;;;2.38;;
40198;SDS011;25906;43.536;26.068;2023-05-17T12:42:23;6.55;;;2.40;;
40198;SDS011;25906;43.536;26.068;2023-05-17T12:45:09;4.78;;;2.35;;
40198;SDS011;25906;43.536;26.068;2023-05-17T12:47:58;6.82;;;2.33;;
40198;SDS011;25906;43.536;26.068;2023-05-17T12:50:44;5.13;;;2.00;;
40198;SDS011;25906;43.536;26.068;2023-05-17T12:53:36;6.65;;;2.30;;
40198;SDS011;25906;43.536;26.068;2023-05-17T12:56:25;2.92;;;2.00;;
40198;SDS011;25906;43.536;26.068;2023-05-17T12:59:12;4.03;;;2.53;;
40198;SDS011;25906;43.536;26.068;2023-05-17T13:02:02;3.20;;;2.22;;
40198;SDS011;25906;43.536;26.068;2023-05-17T13:04:47;3.88;;;1.80;;
40198;SDS011;25906;43.536;26.068;2023-05-17T13:07:33;2.40;;;1.98;;
40198;SDS011;25906;43.536;26.068;2023-05-17T13:10:25;9.20;;;1.75;;
40198;SDS011;25906;43.536;26.068;2023-05-17T13:13:16;2.88;;;1.70;;
40198;SDS011;25906;43.536;26.068;2023-05-17T13:16:06;4.30;;;1.88;;
40198;SDS011;25906;43.536;26.068;2023-05-17T13:18:52;2.70;;;1.77;;
40198;SDS011;25906;43.536;26.068;2023-05-17T13:21:39;3.65;;;1.75;;
40198;SDS011;25906;43.536;26.068;2023-05-17T13:24:25;5.72;;;1.90;;
40198;SDS011;25906;43.536;26.068;2023-05-17T13:27:12;4.05;;;1.95;;
40198;SDS011;25906;43.536;26.068;2023-05-17T13:29:57;5.22;;;1.85;;
40198;SDS011;25906;43.536;26.068;2023-05-17T13:32:43;3.03;;;1.77;;
40198;SDS011;25906;43.536;26.068;2023-05-17T13:35:28;7.82;;;2.30;;
40198;SDS011;25906;43.536;26.068;2023-05-17T13:38:14;6.15;;;2.13;;
40198;SDS011;25906;43.536;26.068;2023-05-17T13:40:59;4.80;;;2.15;;
40198;SDS011;25906;43.536;26.068;2023-05-17T13:43:45;5.10;;;1.85;;
40198;SDS011;25906;43.536;26.068;2023-05-17T13:46:30;4.80;;;2.15;;
40198;SDS011;25906;43.536;26.068;2023-05-17T13:49:16;3.75;;;2.33;;
40198;SDS011;25906;43.536;26.068;2023-05-17T13:52:01;4.35;;;2.33;;
40198;SDS011;25906;43.536;26.068;2023-05-17T13:54:47;7.05;;;2.20;;
40198;SDS011;25906;43.536;26.068;2023-05-17T13:57:33;2.90;;;2.28;;
40198;SDS011;25906;43.536;26.068;2023-05-17T14:00:18;3.55;;;2.00;;
40198;SDS011;25906;43.536;26.068;2023-05-17T14:03:04;4.65;;;2.55;;
40198;SDS011;25906;43.536;26.068;2023-05-17T14:05:50;6.25;;;2.30;;
40198;SDS011;25906;43.536;26.068;2023-05-17T14:08:36;5.18;;;2.20;;
40198;SDS011;25906;43.536;26.068;2023-05-17T14:11:22;3.92;;;2.47;;
40198;SDS011;25906;43.536;26.068;2023-05-17T14:14:07;4.97;;;2.50;;
40198;SDS011;25906;43.536;26.068;2023-05-17T14:16:53;6.90;;;3.30;;
40198;SDS011;25906;43.536;26.068;2023-05-17T14:22:24;7.70;;;3.20;;
40198;SDS011;25906;43.536;26.068;2023-05-17T14:25:09;5.63;;;2.92;;
40198;SDS011;25906;43.536;26.068;2023-05-17T14:30:40;4.85;;;2.50;;
40198;SDS011;25906;43.536;26.068;2023-05-17T14:33:26;6.63;;;2.60;;
40198;SDS011;25906;43.536;26.068;2023-05-17T14:36:12;4.05;;;2.58;;
40198;SDS011;25906;43.536;26.068;2023-05-17T14:38:57;8.77;;;2.83;;
40198;SDS011;25906;43.536;26.068;2023-05-17T14:41:43;4.88;;;2.55;;
40198;SDS011;25906;43.536;26.068;2023-05-17T14:44:28;7.68;;;2.60;;
40198;SDS011;25906;43.536;26.068;2023-05-17T14:47:14;5.13;;;3.03;;
40198;SDS011;25906;43.536;26.068;2023-05-17T14:50:00;4.40;;;2.75;;
40198;SDS011;25906;43.536;26.068;2023-05-17T14:52:45;6.50;;;3.28;;
40198;SDS011;25906;43.536;26.068;2023-05-17T14:55:31;6.30;;;3.05;;
40198;SDS011;25906;43.536;26.068;2023-05-17T14:58:16;3.15;;;2.50;;
40198;SDS011;25906;43.536;26.068;2023-05-17T15:01:01;5.97;;;3.25;;
40198;SDS011;25906;43.536;26.068;2023-05-17T15:03:47;6.03;;;2.80;;
40198;SDS011;25906;43.536;26.068;2023-05-17T15:06:33;5.85;;;2.83;;
40198;SDS011;25906;43.536;26.068;2023-05-17T15:09:18;4.05;;;2.50;;
40198;SDS011;25906;43.536;26.068;2023-05-17T15:12:10;5.72;;;3.47;;
40198;SDS011;25906;43.536;26.068;2023-05-17T15:14:56;4.45;;;3.60;;
40198;SDS011;25906;43.536;26.068;2023-05-17T15:17:42;7.00;;;3.42;;
40198;SDS011;25906;43.536;26.068;2023-05-17T15:20:27;5.63;;;3.70;;
40198;SDS011;25906;43.536;26.068;2023-05-17T15:23:13;9.90;;;3.17;;
40198;SDS011;25906;43.536;26.068;2023-05-17T15:25:58;5.78;;;3.55;;
40198;SDS011;25906;43.536;26.068;2023-05-17T15:28:44;8.30;;;3.30;;
40198;SDS011;25906;43.536;26.068;2023-05-17T15:31:29;9.57;;;4.43;;
40198;SDS011;25906;43.536;26.068;2023-05-17T15:34:15;11.02;;;5.03;;
40198;SDS011;25906;43.536;26.068;2023-05-17T15:37:01;13.48;;;6.10;;
40198;SDS011;25906;43.536;26.068;2023-05-17T15:39:46;23.58;;;10.40;;
40198;SDS011;25906;43.536;26.068;2023-05-17T15:42:32;10.52;;;6.05;;
40198;SDS011;25906;43.536;26.068;2023-05-17T15:45:18;15.25;;;5.93;;
40198;SDS011;25906;43.536;26.068;2023-05-17T15:48:05;16.50;;;7.03;;
40198;SDS011;25906;43.536;26.068;2023-05-17T15:50:51;17.33;;;7.18;;
40198;SDS011;25906;43.536;26.068;2023-05-17T15:53:36;15.77;;;6.22;;
40198;SDS011;25906;43.536;26.068;2023-05-17T15:56:22;10.85;;;5.95;;
40198;SDS011;25906;43.536;26.068;2023-05-17T15:59:07;9.55;;;5.63;;
40198;SDS011;25906;43.536;26.068;2023-05-17T16:01:53;10.35;;;5.07;;
40198;SDS011;25906;43.536;26.068;2023-05-17T16:04:38;9.93;;;4.80;;
40198;SDS011;25906;43.536;26.068;2023-05-17T16:07:23;9.65;;;4.07;;
40198;SDS011;25906;43.536;26.068;2023-05-17T16:10:10;8.02;;;4.35;;
40198;SDS011;25906;43.536;26.068;2023-05-17T16:12:55;9.98;;;4.07;;
40198;SDS011;25906;43.536;26.068;2023-05-17T16:15:41;10.60;;;3.88;;
40198;SDS011;25906;43.536;26.068;2023-05-17T16:18:26;7.05;;;4.35;;
40198;SDS011;25906;43.536;26.068;2023-05-17T16:21:12;9.38;;;4.05;;
40198;SDS011;25906;43.536;26.068;2023-05-17T16:26:43;6.75;;;3.22;;
40198;SDS011;25906;43.536;26.068;2023-05-17T16:29:28;5.47;;;4.10;;
40198;SDS011;25906;43.536;26.068;2023-05-17T16:32:18;9.07;;;4.30;;
40198;SDS011;25906;43.536;26.068;2023-05-17T16:35:03;8.55;;;3.95;;
40198;SDS011;25906;43.536;26.068;2023-05-17T16:37:49;8.60;;;3.90;;
40198;SDS011;25906;43.536;26.068;2023-05-17T16:40:34;6.10;;;3.78;;
40198;SDS011;25906;43.536;26.068;2023-05-17T16:43:20;5.80;;;4.20;;
40198;SDS011;25906;43.536;26.068;2023-05-17T16:46:05;10.38;;;3.85;;
40198;SDS011;25906;43.536;26.068;2023-05-17T16:48:50;8.27;;;4.20;;
40198;SDS011;25906;43.536;26.068;2023-05-17T16:51:37;5.50;;;3.53;;
40198;SDS011;25906;43.536;26.068;2023-05-17T16:54:23;7.65;;;4.10;;
40198;SDS011;25906;43.536;26.068;2023-05-17T16:57:12;7.88;;;3.85;;
40198;SDS011;25906;43.536;26.068;2023-05-17T16:59:59;8.05;;;3.75;;
40198;SDS011;25906;43.536;26.068;2023-05-17T17:02:44;6.25;;;3.60;;
40198;SDS011;25906;43.536;26.068;2023-05-17T17:05:30;10.27;;;3.70;;
40198;SDS011;25906;43.536;26.068;2023-05-17T17:08:15;6.45;;;3.30;;
40198;SDS011;25906;43.536;26.068;2023-05-17T17:11:01;10.43;;;4.10;;
40198;SDS011;25906;43.536;26.068;2023-05-17T17:13:47;16.67;;;5.20;;